Time;durP1;ratioP1;P1;durP2;ratioP2;P2;SDS_P1;SDS_P2;PMS_P1;PMS_P2;Temp;Humidity;BMP_temperature;BMP_pressure;BME280_temperature;BME280_humidity;BME280_pressure;Samples;Min_cycle;Max_cycle;Signal;HPM_P1;HPM_P2
2022/10/27 00:02:12;;;;;;;;;;;9.10;99.90;;;;;;5053950;28;20007;-72
2022/10/27 00:04:37;;;;;;;;;;;9.00;99.90;;;;;;5053875;28;20365;-74
2022/10/27 00:07:03;;;;;;;;;;;9.00;99.90;;;;;;5053647;28;19913;-74
2022/10/27 00:09:28;;;;;;;;;;;9.00;99.90;;;;;;5053577;28;19916;-72
2022/10/27 00:11:54;;;;;;;;;;;8.90;99.90;;;;;;5053362;28;19916;-73
2022/10/27 00:14:20;;;;;;;;;;;8.90;99.90;;;;;;5053884;28;20440;-74
2022/10/27 00:16:51;;;;;;;;;;;8.90;99.90;;;;;;5053553;28;19948;-74
2022/10/27 00:19:17;;;;;;;;;;;8.80;99.90;;;;;;5053800;28;20304;-74
2022/10/27 00:21:42;;;;;;;;;;;8.70;99.90;;;;;;5053723;28;19920;-72
2022/10/27 00:24:08;;;;;;;;;;;8.70;99.90;;;;;;5053568;28;19948;-73
2022/10/27 00:26:33;;;;;;;;;;;8.70;99.90;;;;;;5035868;28;19917;-74
2022/10/27 00:28:59;;;;;;;;;;;8.70;99.90;;;;;;5056543;28;19919;-73
2022/10/27 00:31:24;;;;;;;;;;;8.70;99.90;;;;;;5060058;28;19920;-74
2022/10/27 00:33:50;;;;;;;;;;;8.60;99.90;;;;;;5059978;28;19912;-73
2022/10/27 00:36:23;;;;;;;;;;;8.60;99.90;;;;;;5060019;28;19936;-74
2022/10/27 00:38:52;;;;;;;;;;;8.60;99.90;;;;;;5059801;28;19915;-72
2022/10/27 00:41:28;;;;;;;;;;;8.60;99.90;;;;;;5060264;28;19909;-73
2022/10/27 00:43:54;;;;;;;;;;;8.50;99.90;;;;;;5060141;28;19924;-74
2022/10/27 00:46:29;;;;;;;;;;;8.50;99.90;;;;;;5060236;28;19908;-74
2022/10/27 00:48:57;;;;;;;;;;;8.50;99.90;;;;;;5043090;28;19946;-73
2022/10/27 00:51:23;;;;;;;;;;;8.60;99.90;;;;;;5059894;28;19909;-73
2022/10/27 00:53:49;;;;;;;;;;;8.60;99.90;;;;;;5059834;28;20434;-72
2022/10/27 00:56:15;;;;;;;;;;;8.60;99.90;;;;;;5060125;28;19916;-73
2022/10/27 00:58:42;;;;;;;;;;;8.50;99.90;;;;;;5059793;28;19913;-73
2022/10/27 01:01:07;;;;;;;;;;;8.50;99.90;;;;;;5060062;28;19909;-74
2022/10/27 01:03:33;;;;;;;;;;;8.50;99.90;;;;;;5060037;28;20277;-73
2022/10/27 01:05:59;;;;;;;;;;;8.50;99.90;;;;;;5060028;28;20291;-74
2022/10/27 01:08:24;;;;;;;;;;;8.50;99.90;;;;;;5060057;28;19963;-74
2022/10/27 01:10:50;;;;;;;;;;;8.50;99.90;;;;;;5059628;28;19916;-73
2022/10/27 01:13:17;;;;;;;;;;;8.50;99.90;;;;;;5059441;28;19921;-74
2022/10/27 01:15:48;;;;;;;;;;;8.40;99.90;;;;;;5059746;28;20439;-73
2022/10/27 01:18:14;;;;;;;;;;;8.40;99.90;;;;;;5041751;28;20046;-73
2022/10/27 01:20:58;;;;;;;;;;;8.30;99.90;;;;;;5059686;28;20326;-73
2022/10/27 01:23:24;;;;;;;;;;;8.30;99.90;;;;;;5059550;28;20460;-73
2022/10/27 01:25:49;;;;;;;;;;;8.30;99.90;;;;;;5059273;28;20015;-74
2022/10/27 01:28:37;;;;;;;;;;;8.30;99.90;;;;;;5059565;28;19953;-74
2022/10/27 01:31:07;;;;;;;;;;;8.20;99.90;;;;;;5051303;28;20364;-74
2022/10/27 01:33:45;;;;;;;;;;;8.30;99.90;;;;;;5059397;28;19916;-73
2022/10/27 01:36:14;;;;;;;;;;;8.20;99.90;;;;;;5059766;28;19920;-74
2022/10/27 01:39:00;;;;;;;;;;;8.10;99.90;;;;;;5059480;28;19909;-74
2022/10/27 01:41:44;;;;;;;;;;;8.10;99.90;;;;;;5055101;28;19935;-73
2022/10/27 01:44:13;;;;;;;;;;;8.10;99.90;;;;;;5056189;28;20063;-74
2022/10/27 01:46:39;;;;;;;;;;;8.20;99.90;;;;;;5038632;28;19999;-74
2022/10/27 01:49:06;;;;;;;;;;;8.10;99.90;;;;;;5056460;28;19908;-74
2022/10/27 01:51:32;;;;;;;;;;;8.10;99.90;;;;;;5056641;28;19955;-73
2022/10/27 01:53:57;;;;;;;;;;;8.10;99.90;;;;;;5056445;28;20308;-70
2022/10/27 01:56:35;;;;;;;;;;;8.10;99.90;;;;;;5056344;28;19948;-74
2022/10/27 01:59:06;;;;;;;;;;;8.10;99.90;;;;;;5056268;28;20365;-74
2022/10/27 02:01:38;;;;;;;;;;;8.00;99.90;;;;;;5055944;28;19909;-72
2022/10/27 02:04:07;;;;;;;;;;;7.90;99.90;;;;;;5055817;28;20356;-74
2022/10/27 02:06:41;;;;;;;;;;;7.90;99.90;;;;;;5055878;28;19948;-74
2022/10/27 02:09:12;;;;;;;;;;;7.90;99.90;;;;;;5055538;28;19940;-72
2022/10/27 02:11:40;;;;;;;;;;;7.90;99.90;;;;;;5055472;28;19908;-74
2022/10/27 02:14:06;;;;;;;;;;;7.80;99.90;;;;;;5056023;28;20272;-74
2022/10/27 02:16:37;;;;;;;;;;;7.80;99.90;;;;;;5054878;28;20392;-74
2022/10/27 02:19:16;;;;;;;;;;;7.80;99.90;;;;;;5055641;28;20019;-74
2022/10/27 02:21:43;;;;;;;;;;;7.80;99.90;;;;;;5055777;28;19915;-73
2022/10/27 02:24:08;;;;;;;;;;;7.80;99.90;;;;;;5055485;28;19952;-73
2022/10/27 02:26:55;;;;;;;;;;;7.80;99.90;;;;;;5055496;28;19952;-74
2022/10/27 02:29:21;;;;;;;;;;;7.80;99.90;;;;;;5055440;28;20003;-74
2022/10/27 02:31:48;;;;;;;;;;;7.80;99.90;;;;;;5055307;28;19944;-73
2022/10/27 02:34:15;;;;;;;;;;;7.70;99.90;;;;;;5055376;28;20007;-74
2022/10/27 02:36:40;;;;;;;;;;;7.70;99.90;;;;;;5055590;28;20311;-74
2022/10/27 02:39:06;;;;;;;;;;;7.70;99.90;;;;;;5055691;28;19909;-73
2022/10/27 02:41:31;;;;;;;;;;;7.70;99.90;;;;;;5037133;28;19960;-73
2022/10/27 02:43:57;;;;;;;;;;;7.60;99.90;;;;;;5055105;28;19909;-74
2022/10/27 02:46:23;;;;;;;;;;;7.60;99.90;;;;;;5055132;28;20365;-74
2022/10/27 02:48:48;;;;;;;;;;;7.50;99.90;;;;;;5055094;28;20320;-74
2022/10/27 02:51:14;;;;;;;;;;;7.50;99.90;;;;;;5054913;28;20371;-74
2022/10/27 02:53:39;;;;;;;;;;;7.40;99.90;;;;;;5054941;28;19913;-73
2022/10/27 02:56:06;;;;;;;;;;;7.40;99.90;;;;;;5054724;28;20280;-73
2022/10/27 02:58:31;;;;;;;;;;;7.40;99.90;;;;;;5055171;28;19940;-74
2022/10/27 03:00:57;;;;;;;;;;;7.40;99.90;;;;;;5054914;28;19913;-74
2022/10/27 03:03:23;;;;;;;;;;;7.40;99.90;;;;;;5054984;28;19913;-73
2022/10/27 03:05:48;;;;;;;;;;;7.40;99.90;;;;;;5054666;28;19971;-74
2022/10/27 03:08:14;;;;;;;;;;;7.40;99.90;;;;;;5054989;28;19913;-74
2022/10/27 03:10:40;;;;;;;;;;;7.30;99.90;;;;;;5054416;28;20032;-73
2022/10/27 03:13:05;;;;;;;;;;;7.30;99.90;;;;;;5054358;28;20379;-74
2022/10/27 03:15:31;;;;;;;;;;;7.20;99.90;;;;;;5054579;28;20386;-74
2022/10/27 03:17:56;;;;;;;;;;;7.10;99.90;;;;;;5054491;28;20343;-74
2022/10/27 03:20:22;;;;;;;;;;;7.00;99.90;;;;;;5054991;28;19948;-74
2022/10/27 03:22:47;;;;;;;;;;;7.10;99.90;;;;;;5054573;28;19913;-73
2022/10/27 03:25:14;;;;;;;;;;;7.00;99.90;;;;;;5054021;28;19967;-73
2022/10/27 03:27:41;;;;;;;;;;;7.00;99.90;;;;;;5054239;28;19908;-74
2022/10/27 03:30:08;;;;;;;;;;;7.00;99.90;;;;;;5054591;28;20004;-74
2022/10/27 03:32:33;;;;;;;;;;;7.00;99.90;;;;;;5054368;28;19920;-73
2022/10/27 03:34:59;;;;;;;;;;;7.00;99.90;;;;;;5054165;28;19909;-74
2022/10/27 03:37:25;;;;;;;;;;;7.00;99.90;;;;;;5054132;28;19985;-74
2022/10/27 03:39:50;;;;;;;;;;;7.00;99.90;;;;;;5053875;28;20017;-73
2022/10/27 03:42:16;;;;;;;;;;;7.00;99.90;;;;;;5053938;28;19916;-73
2022/10/27 03:44:41;;;;;;;;;;;6.90;99.90;;;;;;5054240;28;19917;-74
2022/10/27 03:47:07;;;;;;;;;;;6.80;99.90;;;;;;5053993;28;19913;-74
2022/10/27 03:49:32;;;;;;;;;;;6.80;99.90;;;;;;5053926;28;19952;-74
2022/10/27 03:51:58;;;;;;;;;;;6.70;99.90;;;;;;5054148;28;19913;-73
2022/10/27 03:54:23;;;;;;;;;;;6.80;99.90;;;;;;5053864;28;19917;-73
2022/10/27 03:56:49;;;;;;;;;;;6.80;99.90;;;;;;5053761;28;19917;-74
2022/10/27 03:59:14;;;;;;;;;;;6.80;99.90;;;;;;5054067;28;20003;-74
2022/10/27 04:01:40;;;;;;;;;;;6.80;99.90;;;;;;5053708;28;19947;-73
2022/10/27 04:04:05;;;;;;;;;;;6.80;99.90;;;;;;5053408;28;19913;-74
2022/10/27 04:06:31;;;;;;;;;;;6.80;99.90;;;;;;5053946;28;19948;-74
2022/10/27 04:08:56;;;;;;;;;;;6.80;99.90;;;;;;5036212;28;19971;-74
2022/10/27 04:11:22;;;;;;;;;;;6.80;99.90;;;;;;5053313;28;19912;-73
2022/10/27 04:13:47;;;;;;;;;;;6.80;99.90;;;;;;5054173;28;19921;-73
2022/10/27 04:16:13;;;;;;;;;;;6.80;99.90;;;;;;5053578;28;19935;-73
2022/10/27 04:18:38;;;;;;;;;;;6.80;99.90;;;;;;5053551;28;20015;-73
2022/10/27 04:21:05;;;;;;;;;;;6.80;99.90;;;;;;5053515;28;20351;-73
2022/10/27 04:23:31;;;;;;;;;;;6.70;99.90;;;;;;5035434;28;19951;-73
2022/10/27 04:25:56;;;;;;;;;;;6.70;99.90;;;;;;5053308;28;19948;-72
2022/10/27 04:28:22;;;;;;;;;;;6.70;99.90;;;;;;5053384;28;19917;-73
2022/10/27 04:30:47;;;;;;;;;;;6.70;99.90;;;;;;5053733;28;19948;-73
2022/10/27 04:33:13;;;;;;;;;;;6.70;99.90;;;;;;5053634;28;20412;-73
2022/10/27 04:35:39;;;;;;;;;;;6.60;99.90;;;;;;5053355;28;20377;-73
2022/10/27 04:38:04;;;;;;;;;;;6.60;99.90;;;;;;5053342;28;20284;-73
2022/10/27 04:40:30;;;;;;;;;;;6.60;99.90;;;;;;5053276;28;19909;-72
2022/10/27 04:42:55;;;;;;;;;;;6.60;99.90;;;;;;5053230;28;19976;-72
2022/10/27 04:45:21;;;;;;;;;;;6.60;99.90;;;;;;5053438;28;19921;-73
2022/10/27 04:47:47;;;;;;;;;;;6.50;99.90;;;;;;5053253;28;19956;-73
2022/10/27 04:50:13;;;;;;;;;;;6.50;99.90;;;;;;5035366;28;20050;-74
2022/10/27 04:52:39;;;;;;;;;;;6.50;99.90;;;;;;5053929;28;19916;-73
2022/10/27 04:55:05;;;;;;;;;;;6.50;99.90;;;;;;5053185;28;19909;-72
2022/10/27 04:57:30;;;;;;;;;;;6.40;99.90;;;;;;5053185;28;20312;-73
2022/10/27 04:59:56;;;;;;;;;;;6.40;99.90;;;;;;5053407;28;19920;-73
2022/10/27 05:02:21;;;;;;;;;;;6.30;99.90;;;;;;5052996;28;20030;-73
2022/10/27 05:04:47;;;;;;;;;;;6.30;99.90;;;;;;5053013;28;20355;-73
2022/10/27 05:07:13;;;;;;;;;;;6.20;99.90;;;;;;5053076;28;20316;-73
2022/10/27 05:09:38;;;;;;;;;;;6.20;99.90;;;;;;5052855;28;20375;-72
2022/10/27 05:12:04;;;;;;;;;;;6.20;99.90;;;;;;5034865;28;19917;-73
2022/10/27 05:14:30;;;;;;;;;;;6.20;99.90;;;;;;5052961;28;19913;-73
2022/10/27 05:16:55;;;;;;;;;;;6.20;99.90;;;;;;5055933;28;20345;-73
2022/10/27 05:19:21;;;;;;;;;;;6.20;99.90;;;;;;5057032;28;20380;-73
2022/10/27 05:21:46;;;;;;;;;;;6.10;99.90;;;;;;5056877;28;20369;-73
2022/10/27 05:24:12;;;;;;;;;;;6.20;99.90;;;;;;5056525;28;19924;-73
2022/10/27 05:26:37;;;;;;;;;;;6.10;99.90;;;;;;5056487;28;19959;-73
2022/10/27 05:29:03;;;;;;;;;;;6.10;99.90;;;;;;5056593;28;19912;-73
2022/10/27 05:31:28;;;;;;;;;;;6.00;99.90;;;;;;5056735;28;19920;-73
2022/10/27 05:33:54;;;;;;;;;;;5.90;99.90;;;;;;5056506;28;20008;-73
2022/10/27 05:36:19;;;;;;;;;;;5.80;99.90;;;;;;5056975;28;20353;-74
2022/10/27 05:38:45;;;;;;;;;;;5.70;99.90;;;;;;5056374;28;19928;-73
2022/10/27 05:41:11;;;;;;;;;;;5.70;99.90;;;;;;5056208;28;20270;-72
2022/10/27 05:43:37;;;;;;;;;;;5.60;99.90;;;;;;5056187;28;19909;-73
2022/10/27 05:46:03;;;;;;;;;;;5.70;99.90;;;;;;5038405;28;19924;-73
2022/10/27 05:48:29;;;;;;;;;;;5.70;99.90;;;;;;5056171;28;20319;-73
2022/10/27 05:50:54;;;;;;;;;;;5.70;99.90;;;;;;5056200;28;20321;-73
2022/10/27 05:53:20;;;;;;;;;;;5.80;99.90;;;;;;5056135;28;19958;-72
2022/10/27 05:55:46;;;;;;;;;;;5.80;99.90;;;;;;5055864;28;20004;-72
2022/10/27 05:58:12;;;;;;;;;;;5.90;99.90;;;;;;5056060;28;20012;-73
2022/10/27 06:00:37;;;;;;;;;;;5.90;99.90;;;;;;5038101;28;19913;-73
2022/10/27 06:03:04;;;;;;;;;;;5.90;99.90;;;;;;5037866;28;19916;-73
2022/10/27 06:05:30;;;;;;;;;;;5.90;99.90;;;;;;5037811;28;19955;-73
2022/10/27 06:07:56;;;;;;;;;;;6.00;99.90;;;;;;5055882;28;19931;-73
2022/10/27 06:10:22;;;;;;;;;;;5.90;99.90;;;;;;5055553;28;20357;-72
2022/10/27 06:12:47;;;;;;;;;;;6.00;99.90;;;;;;5055592;28;19952;-73
2022/10/27 06:15:13;;;;;;;;;;;5.90;99.90;;;;;;5055955;28;19913;-73
2022/10/27 06:17:38;;;;;;;;;;;5.90;99.90;;;;;;5055639;28;20091;-73
2022/10/27 06:20:05;;;;;;;;;;;5.90;99.90;;;;;;5055921;28;19913;-73
2022/10/27 06:22:30;;;;;;;;;;;5.90;99.90;;;;;;5055822;28;19932;-73
2022/10/27 06:24:56;;;;;;;;;;;5.90;99.90;;;;;;5055434;28;20364;-72
2022/10/27 06:27:21;;;;;;;;;;;5.90;99.90;;;;;;5055014;28;19919;-73
2022/10/27 06:29:47;;;;;;;;;;;5.90;99.90;;;;;;5055767;28;19920;-73
2022/10/27 06:32:12;;;;;;;;;;;5.90;99.90;;;;;;5055883;28;19909;-73
2022/10/27 06:34:38;;;;;;;;;;;5.90;99.90;;;;;;5055369;28;20336;-73
2022/10/27 06:37:04;;;;;;;;;;;6.00;99.90;;;;;;5055534;28;19942;-73
2022/10/27 06:39:30;;;;;;;;;;;6.00;99.90;;;;;;5055311;28;19920;-73
2022/10/27 06:41:56;;;;;;;;;;;6.00;99.90;;;;;;5054824;28;19909;-73
2022/10/27 06:44:22;;;;;;;;;;;6.00;99.90;;;;;;5055383;28;19921;-73
2022/10/27 06:46:48;;;;;;;;;;;6.00;99.90;;;;;;5055482;28;19937;-73
2022/10/27 06:49:13;;;;;;;;;;;6.00;99.90;;;;;;5055072;28;20313;-73
2022/10/27 06:51:39;;;;;;;;;;;6.10;99.90;;;;;;5037186;28;20266;-72
2022/10/27 06:54:04;;;;;;;;;;;6.10;99.90;;;;;;5055257;28;19962;-73
2022/10/27 06:56:30;;;;;;;;;;;6.10;99.90;;;;;;5054809;28;19913;-73
2022/10/27 06:58:55;;;;;;;;;;;6.20;99.90;;;;;;5055440;28;19920;-73
2022/10/27 07:01:21;;;;;;;;;;;6.20;99.90;;;;;;5055095;28;19996;-73
2022/10/27 07:03:46;;;;;;;;;;;6.20;99.90;;;;;;5054737;28;19995;-73
2022/10/27 07:06:12;;;;;;;;;;;6.30;99.90;;;;;;5054668;28;19924;-73
2022/10/27 07:08:38;;;;;;;;;;;6.30;99.90;;;;;;5054991;28;19940;-73
2022/10/27 07:11:03;;;;;;;;;;;6.40;99.90;;;;;;5054364;28;19913;-73
2022/10/27 07:13:29;;;;;;;;;;;6.40;99.90;;;;;;5054383;28;19927;-73
2022/10/27 07:15:55;;;;;;;;;;;6.40;99.90;;;;;;5054839;28;19952;-73
2022/10/27 07:18:20;;;;;;;;;;;6.50;99.90;;;;;;5054528;28;20371;-73
2022/10/27 07:20:48;;;;;;;;;;;6.60;99.90;;;;;;5036555;28;19913;-73
2022/10/27 07:23:13;;;;;;;;;;;6.60;99.90;;;;;;5054398;28;20298;-73
2022/10/27 07:25:39;;;;;;;;;;;6.70;99.90;;;;;;5054209;28;20007;-72
2022/10/27 07:28:05;;;;;;;;;;;6.80;99.90;;;;;;5054326;28;19954;-73
2022/10/27 07:30:32;;;;;;;;;;;6.80;99.90;;;;;;5054324;28;20385;-74
2022/10/27 07:32:58;;;;;;;;;;;6.90;99.90;;;;;;5054124;28;20341;-73
2022/10/27 07:35:23;;;;;;;;;;;7.00;99.90;;;;;;5054148;28;20004;-73
2022/10/27 07:37:49;;;;;;;;;;;7.10;99.90;;;;;;5053874;28;19963;-73
2022/10/27 07:40:16;;;;;;;;;;;7.20;99.90;;;;;;5053617;28;19908;-72
2022/10/27 07:42:45;;;;;;;;;;;7.30;99.90;;;;;;5053918;28;19916;-72
2022/10/27 07:45:11;;;;;;;;;;;7.30;99.90;;;;;;5054241;28;19913;-73
2022/10/27 07:47:37;;;;;;;;;;;7.40;99.90;;;;;;5054002;28;20364;-73
2022/10/27 07:50:02;;;;;;;;;;;7.50;99.90;;;;;;5054002;28;19913;-73
2022/10/27 07:52:28;;;;;;;;;;;7.60;99.90;;;;;;5053862;28;20219;-73
2022/10/27 07:54:55;;;;;;;;;;;7.70;99.90;;;;;;5054147;28;19920;-73
2022/10/27 07:57:20;;;;;;;;;;;7.80;99.90;;;;;;5053551;28;19913;-72
2022/10/27 07:59:46;;;;;;;;;;;7.90;99.90;;;;;;5053807;28;20280;-73
2022/10/27 08:02:11;;;;;;;;;;;8.00;99.90;;;;;;5053723;28;20349;-72
2022/10/27 08:04:37;;;;;;;;;;;8.10;99.90;;;;;;5054197;28;20457;-73
2022/10/27 08:07:02;;;;;;;;;;;8.20;99.90;;;;;;5053990;28;19913;-73
2022/10/27 08:09:28;;;;;;;;;;;8.30;99.90;;;;;;5054161;28;19913;-73
2022/10/27 08:11:53;;;;;;;;;;;8.40;99.90;;;;;;5053133;28;19923;-73
2022/10/27 08:14:19;;;;;;;;;;;8.50;99.90;;;;;;5036136;28;19913;-72
2022/10/27 08:16:45;;;;;;;;;;;8.70;99.90;;;;;;5036047;28;20471;-73
2022/10/27 08:19:10;;;;;;;;;;;8.80;99.90;;;;;;5053763;28;20328;-72
2022/10/27 08:21:36;;;;;;;;;;;8.90;99.90;;;;;;5053781;28;20264;-73
2022/10/27 08:24:02;;;;;;;;;;;9.00;99.90;;;;;;5053395;28;20335;-72
2022/10/27 08:26:27;;;;;;;;;;;9.20;99.90;;;;;;5053360;28;19913;-71
2022/10/27 08:28:53;;;;;;;;;;;9.30;99.90;;;;;;5053451;28;19952;-72
2022/10/27 08:31:18;;;;;;;;;;;9.40;99.90;;;;;;5053446;28;20310;-72
2022/10/27 08:33:44;;;;;;;;;;;9.50;99.90;;;;;;5053372;28;19953;-72
2022/10/27 08:36:10;;;;;;;;;;;9.60;99.90;;;;;;5053403;28;19952;-72
2022/10/27 08:38:37;;;;;;;;;;;9.60;99.90;;;;;;5053400;28;20292;-72
2022/10/27 08:41:19;;;;;;;;;;;9.70;99.90;;;;;;5053124;28;19919;-71
2022/10/27 08:43:48;;;;;;;;;;;9.70;99.90;;;;;;5053282;28;19948;-72
2022/10/27 08:46:19;;;;;;;;;;;9.80;99.90;;;;;;5053238;28;19917;-72
2022/10/27 08:48:45;;;;;;;;;;;9.90;99.90;;;;;;5053523;28;20273;-72
2022/10/27 08:51:16;;;;;;;;;;;10.00;99.90;;;;;;5056796;28;20384;-72
2022/10/27 08:53:42;;;;;;;;;;;10.00;99.90;;;;;;5039328;28;19919;-72
2022/10/27 08:56:09;;;;;;;;;;;10.10;99.90;;;;;;5057003;28;19913;-71
2022/10/27 08:58:36;;;;;;;;;;;10.20;99.90;;;;;;5057520;28;19909;-72
2022/10/27 09:01:08;;;;;;;;;;;10.30;99.90;;;;;;5057438;28;19909;-72
2022/10/27 09:03:36;;;;;;;;;;;10.40;99.90;;;;;;5057120;28;19944;-72
2022/10/27 09:06:23;;;;;;;;;;;10.60;99.90;;;;;;5056961;28;19924;-72
2022/10/27 09:09:08;;;;;;;;;;;10.70;99.90;;;;;;5039116;28;19913;-72
2022/10/27 09:11:33;;;;;;;;;;;10.80;99.90;;;;;;5056511;28;19909;-72
2022/10/27 09:14:14;;;;;;;;;;;11.00;99.90;;;;;;5056847;28;20355;-72
2022/10/27 09:17:03;;;;;;;;;;;11.10;99.90;;;;;;5039183;28;19909;-72
2022/10/27 09:19:31;;;;;;;;;;;11.20;99.90;;;;;;5048512;28;19915;-72
2022/10/27 09:21:58;;;;;;;;;;;11.40;99.90;;;;;;5056696;28;19908;-72
2022/10/27 09:24:26;;;;;;;;;;;11.50;99.90;;;;;;5056570;28;19971;-72
2022/10/27 09:26:52;;;;;;;;;;;11.50;99.90;;;;;;5038479;28;19913;-71
2022/10/27 09:29:21;;;;;;;;;;;11.70;99.90;;;;;;5056567;28;19962;-72
2022/10/27 09:31:47;;;;;;;;;;;11.80;99.90;;;;;;5056705;28;19913;-71
2022/10/27 09:34:22;;;;;;;;;;;11.90;99.90;;;;;;5056543;28;19915;-71
2022/10/27 09:36:47;;;;;;;;;;;12.00;99.90;;;;;;5056479;28;19909;-72
2022/10/27 09:39:13;;;;;;;;;;;12.10;99.90;;;;;;5056434;28;19913;-72
2022/10/27 09:41:38;;;;;;;;;;;12.20;99.90;;;;;;5056111;28;19913;-71
2022/10/27 09:44:14;;;;;;;;;;;12.20;99.90;;;;;;5056608;28;20281;-71
2022/10/27 09:46:40;;;;;;;;;;;12.30;99.90;;;;;;5056613;28;19912;-71
2022/10/27 09:49:05;;;;;;;;;;;12.40;99.90;;;;;;5056247;28;20288;-71
2022/10/27 09:51:36;;;;;;;;;;;12.50;99.90;;;;;;5056591;28;19917;-71
2022/10/27 09:54:04;;;;;;;;;;;12.60;99.90;;;;;;5038506;28;19908;-71
2022/10/27 09:56:31;;;;;;;;;;;12.70;99.90;;;;;;5055876;28;20257;-71
2022/10/27 09:59:01;;;;;;;;;;;12.80;99.90;;;;;;5056196;28;19958;-71
2022/10/27 10:01:39;;;;;;;;;;;12.90;99.90;;;;;;5055082;28;20319;-71
2022/10/27 10:04:05;;;;;;;;;;;13.00;99.90;;;;;;5056227;28;20429;-71
2022/10/27 10:06:35;;;;;;;;;;;13.10;99.90;;;;;;5055904;28;19959;-71
2022/10/27 10:09:15;;;;;;;;;;;13.20;99.90;;;;;;5037900;28;19909;-71
2022/10/27 10:11:40;;;;;;;;;;;13.30;99.90;;;;;;5055680;28;19921;-70
2022/10/27 10:14:15;;;;;;;;;;;13.30;99.90;;;;;;5056557;28;19913;-69
2022/10/27 10:16:43;;;;;;;;;;;13.40;99.90;;;;;;5056275;28;19909;-69
2022/10/27 10:19:16;;;;;;;;;;;13.50;99.90;;;;;;5055641;28;19916;-68
2022/10/27 10:21:44;;;;;;;;;;;13.60;99.90;;;;;;5037659;28;20012;-68
2022/10/27 10:24:17;;;;;;;;;;;13.80;99.90;;;;;;5055490;28;20008;-68
2022/10/27 10:26:47;;;;;;;;;;;13.90;99.90;;;;;;5055290;28;19916;-68
2022/10/27 10:29:21;;;;;;;;;;;14.00;99.90;;;;;;5055436;28;19935;-68
2022/10/27 10:31:46;;;;;;;;;;;14.20;99.90;;;;;;5055688;28;19912;-68
2022/10/27 10:34:44;;;;;;;;;;;14.30;99.90;;;;;;5055444;28;19958;-68
2022/10/27 10:37:29;;;;;;;;;;;14.40;99.90;;;;;;5021678;28;19999;-68
2022/10/27 10:40:06;;;;;;;;;;;14.50;99.90;;;;;;5055333;28;19960;-68
2022/10/27 10:42:31;;;;;;;;;;;14.60;99.90;;;;;;5054951;28;20012;-68
2022/10/27 10:45:17;;;;;;;;;;;14.70;99.90;;;;;;5055127;28;20015;-68
2022/10/27 10:47:46;;;;;;;;;;;14.70;99.90;;;;;;5055345;28;19916;-68
2022/10/27 10:50:12;;;;;;;;;;;14.70;99.90;;;;;;5055076;28;19945;-68
2022/10/27 10:52:38;;;;;;;;;;;14.80;99.90;;;;;;5055262;28;19909;-68
2022/10/27 10:55:17;;;;;;;;;;;14.90;99.90;;;;;;5054971;28;19920;-68
2022/10/27 10:57:44;;;;;;;;;;;14.90;99.90;;;;;;5054714;28;19913;-68
2022/10/27 11:00:17;;;;;;;;;;;15.00;99.90;;;;;;5055177;28;19913;-68
2022/10/27 11:02:50;;;;;;;;;;;15.10;99.90;;;;;;5054996;28;19963;-68
2022/10/27 11:05:24;;;;;;;;;;;15.20;99.90;;;;;;5054699;28;19912;-68
2022/10/27 11:07:49;;;;;;;;;;;15.30;99.90;;;;;;5036787;28;20041;-68
2022/10/27 11:10:18;;;;;;;;;;;15.30;99.90;;;;;;5054997;28;19962;-68
2022/10/27 11:12:45;;;;;;;;;;;15.50;99.90;;;;;;5054079;28;19923;-68
2022/10/27 11:15:14;;;;;;;;;;;15.50;99.90;;;;;;5054907;28;19924;-68
2022/10/27 11:17:40;;;;;;;;;;;15.60;99.90;;;;;;5054631;28;19952;-68
2022/10/27 11:20:09;;;;;;;;;;;15.70;99.90;;;;;;5054532;28;19913;-68
2022/10/27 11:22:36;;;;;;;;;;;15.80;99.90;;;;;;5054367;28;19956;-69
2022/10/27 11:25:06;;;;;;;;;;;15.90;99.90;;;;;;5054305;28;19935;-70
2022/10/27 11:27:38;;;;;;;;;;;16.00;99.90;;;;;;5054047;28;20015;-68
2022/10/27 11:30:20;;;;;;;;;;;16.10;99.90;;;;;;5054327;28;20003;-68
2022/10/27 11:32:50;;;;;;;;;;;16.20;99.90;;;;;;5054490;28;20051;-68
2022/10/27 11:35:15;;;;;;;;;;;16.40;99.90;;;;;;5054771;28;19909;-68
2022/10/27 11:37:45;;;;;;;;;;;16.50;99.90;;;;;;5054211;28;20368;-68
2022/10/27 11:40:18;;;;;;;;;;;16.60;99.90;;;;;;5054208;28;19951;-68
2022/10/27 11:42:53;;;;;;;;;;;16.70;99.90;;;;;;5053732;28;19908;-68
2022/10/27 11:45:20;;;;;;;;;;;16.80;99.90;;;;;;5054017;28;19912;-68
2022/10/27 11:47:52;;;;;;;;;;;16.90;99.90;;;;;;5054002;28;19941;-68
2022/10/27 11:50:23;;;;;;;;;;;17.00;99.90;;;;;;5054255;28;20385;-68
2022/10/27 11:52:50;;;;;;;;;;;17.00;99.90;;;;;;5054030;28;19940;-68
2022/10/27 11:55:17;;;;;;;;;;;17.10;99.90;;;;;;5053803;28;19909;-68
2022/10/27 11:57:50;;;;;;;;;;;17.20;99.90;;;;;;5053610;28;19977;-68
2022/10/27 12:00:22;;;;;;;;;;;17.30;99.90;;;;;;5054348;28;19909;-68
2022/10/27 12:03:06;;;;;;;;;;;17.40;99.90;;;;;;5053740;28;20008;-68
2022/10/27 12:05:50;;;;;;;;;;;17.50;99.90;;;;;;5053609;28;20364;-67
2022/10/27 12:08:18;;;;;;;;;;;17.60;99.90;;;;;;5053596;28;19909;-68
2022/10/27 12:10:56;;;;;;;;;;;17.70;99.90;;;;;;5052698;28;19944;-68
2022/10/27 12:13:29;;;;;;;;;;;17.80;99.90;;;;;;5052427;28;19921;-69
2022/10/27 12:15:59;;;;;;;;;;;17.90;99.90;;;;;;5039211;28;19909;-68
2022/10/27 12:18:27;;;;;;;;;;;18.00;99.90;;;;;;5033661;28;19910;-68
2022/10/27 12:20:57;;;;;;;;;;;18.10;99.90;;;;;;5033602;28;20003;-68
2022/10/27 12:23:28;;;;;;;;;;;18.10;99.90;;;;;;5033436;28;19910;-67
2022/10/27 12:26:03;;;;;;;;;;;18.20;99.90;;;;;;5032735;28;19939;-68
2022/10/27 12:28:31;;;;;;;;;;;18.30;99.90;;;;;;5033856;28;19912;-68
2022/10/27 12:30:58;;;;;;;;;;;18.30;99.90;;;;;;5033560;28;19910;-68
2022/10/27 12:33:41;;;;;;;;;;;18.40;99.90;;;;;;5034317;28;19913;-67
2022/10/27 12:36:13;;;;;;;;;;;18.40;99.90;;;;;;5034054;28;19935;-67
2022/10/27 12:38:42;;;;;;;;;;;18.50;99.90;;;;;;5033730;28;19910;-67
2022/10/27 12:41:17;;;;;;;;;;;18.60;99.90;;;;;;5033695;28;19916;-67
2022/10/27 12:44:21;;;;;;;;;;;18.70;99.90;;;;;;5033351;28;19910;-67
2022/10/27 12:46:52;;;;;;;;;;;18.90;99.90;;;;;;4953829;29;19914;-68
2022/10/27 12:49:36;;;;;;;;;;;19.00;99.90;;;;;;4953616;29;19911;-67
2022/10/27 12:52:04;;;;;;;;;;;19.00;99.90;;;;;;5003037;28;19952;-67
2022/10/27 12:54:37;;;;;;;;;;;19.00;99.90;;;;;;5033679;28;19917;-67
2022/10/27 12:57:18;;;;;;;;;;;19.00;99.90;;;;;;5033231;28;19921;-67
2022/10/27 12:59:50;;;;;;;;;;;18.90;99.90;;;;;;5033275;28;20031;-67
2022/10/27 13:02:16;;;;;;;;;;;19.00;99.90;;;;;;5033199;28;19924;-67
2022/10/27 13:04:42;;;;;;;;;;;19.00;99.90;;;;;;5033733;28;19925;-67
2022/10/27 13:07:22;;;;;;;;;;;19.00;99.90;;;;;;5033194;28;19915;-67
2022/10/27 13:09:57;;;;;;;;;;;18.90;99.90;;;;;;5033150;28;19909;-67
2022/10/27 13:12:28;;;;;;;;;;;18.80;99.90;;;;;;5041871;28;19920;-67
2022/10/27 13:14:54;;;;;;;;;;;18.60;99.90;;;;;;5053589;28;20015;-67
2022/10/27 13:17:25;;;;;;;;;;;18.50;99.90;;;;;;5053079;28;19948;-67
2022/10/27 13:19:59;;;;;;;;;;;18.40;99.90;;;;;;5053035;28;19909;-67
2022/10/27 13:22:31;;;;;;;;;;;18.40;99.90;;;;;;5052901;28;20067;-67
2022/10/27 13:25:18;;;;;;;;;;;18.30;99.90;;;;;;5053382;28;19919;-68
2022/10/27 13:27:50;;;;;;;;;;;18.30;99.90;;;;;;5052684;28;19909;-67
2022/10/27 13:30:28;;;;;;;;;;;18.20;99.90;;;;;;5052902;28;20063;-68
2022/10/27 13:32:54;;;;;;;;;;;18.20;99.90;;;;;;5053042;28;20281;-67
2022/10/27 13:35:35;;;;;;;;;;;18.20;99.90;;;;;;5052819;28;19913;-67
2022/10/27 13:38:36;;;;;;;;;;;18.10;99.90;;;;;;5056077;28;19913;-67
2022/10/27 13:41:02;;;;;;;;;;;18.10;99.90;;;;;;4995241;28;20402;-67
2022/10/27 13:43:28;;;;;;;;;;;18.10;99.90;;;;;;5027325;28;19949;-68
2022/10/27 13:45:54;;;;;;;;;;;18.20;99.90;;;;;;5018545;28;19913;-67
2022/10/27 13:48:20;;;;;;;;;;;18.40;99.90;;;;;;5036343;28;19968;-68
2022/10/27 13:50:47;;;;;;;;;;;18.50;99.90;;;;;;5036309;28;19909;-67
2022/10/27 13:53:15;;;;;;;;;;;18.60;99.90;;;;;;5036233;28;20268;-67
2022/10/27 13:55:41;;;;;;;;;;;18.70;99.90;;;;;;5036233;28;19913;-67
2022/10/27 13:58:18;;;;;;;;;;;18.80;99.90;;;;;;5018149;28;20419;-67
2022/10/27 14:00:47;;;;;;;;;;;18.90;99.90;;;;;;5036146;28;19909;-67
2022/10/27 14:03:15;;;;;;;;;;;19.00;99.90;;;;;;5035992;28;19913;-68
2022/10/27 14:05:44;;;;;;;;;;;19.10;99.90;;;;;;5018182;28;19913;-67
2022/10/27 14:08:16;;;;;;;;;;;19.10;99.90;;;;;;5036225;28;19943;-67
2022/10/27 14:10:42;;;;;;;;;;;19.10;99.90;;;;;;5035926;28;19913;-67
2022/10/27 14:13:15;;;;;;;;;;;19.10;99.90;;;;;;5050853;28;19921;-67
2022/10/27 14:15:40;;;;;;;;;;;19.10;99.90;;;;;;5055750;28;19909;-68
2022/10/27 14:18:17;;;;;;;;;;;19.10;99.90;;;;;;5055709;28;19913;-68
2022/10/27 14:20:43;;;;;;;;;;;19.10;99.90;;;;;;5055949;28;20060;-68
2022/10/27 14:23:12;;;;;;;;;;;19.10;99.90;;;;;;5055575;28;19908;-68
2022/10/27 14:25:38;;;;;;;;;;;19.00;99.90;;;;;;5055451;28;19921;-68
2022/10/27 14:28:13;;;;;;;;;;;19.00;99.90;;;;;;5055303;28;19942;-68
2022/10/27 14:30:39;;;;;;;;;;;18.90;99.90;;;;;;5055474;28;19909;-68
2022/10/27 14:33:18;;;;;;;;;;;18.90;99.90;;;;;;5055592;28;19908;-68
2022/10/27 14:35:44;;;;;;;;;;;18.80;99.90;;;;;;5055713;28;19909;-68